Terminal Aerodrome Forecast
Issued by NWS Wichita, KS

Home | Current Version | Previous Version | Text Only | Print | Product List | Glossary On
Versions: 1 2 3 4 5 6 7 8 9 10 11 12 13 14 15 16 17 18 19 20 21
000
FTUS43 KICT 152000 AAA
TAFICT
TAF AMD
KICT 152045Z 1521/1618 20013G24KT P6SM BKN250
     FM160300 17016G24KT P6SM SCT250
     FM161500 19026G35KT P6SM FEW250=

USA.gov is the U.S. government's official web portal to all federal, state and local government web resources and services.